sensor_id;sensor_type;location;lat;lon;timestamp;P1;durP1;ratioP1;P2;durP2;ratioP2
56381;SDS011;50261;51.150;4.470;2022-07-23T00:01:15;10.85;;;6.65;;
56381;SDS011;50261;51.150;4.470;2022-07-23T00:03:40;7.82;;;5.55;;
56381;SDS011;50261;51.150;4.470;2022-07-23T00:06:06;7.63;;;5.85;;
56381;SDS011;50261;51.150;4.470;2022-07-23T00:08:32;9.00;;;6.55;;
56381;SDS011;50261;51.150;4.470;2022-07-23T00:10:57;8.57;;;5.97;;
56381;SDS011;50261;51.150;4.470;2022-07-23T00:13:23;13.32;;;6.85;;
56381;SDS011;50261;51.150;4.470;2022-07-23T00:15:48;10.48;;;6.38;;
56381;SDS011;50261;51.150;4.470;2022-07-23T00:18:14;8.52;;;6.10;;
56381;SDS011;50261;51.150;4.470;2022-07-23T00:20:40;7.53;;;6.05;;
56381;SDS011;50261;51.150;4.470;2022-07-23T00:23:06;9.52;;;6.00;;
56381;SDS011;50261;51.150;4.470;2022-07-23T00:25:31;12.60;;;6.63;;
56381;SDS011;50261;51.150;4.470;2022-07-23T00:27:57;7.72;;;5.85;;
56381;SDS011;50261;51.150;4.470;2022-07-23T00:30:23;6.95;;;5.63;;
56381;SDS011;50261;51.150;4.470;2022-07-23T00:32:53;8.65;;;6.20;;
56381;SDS011;50261;51.150;4.470;2022-07-23T00:35:20;9.38;;;5.88;;
56381;SDS011;50261;51.150;4.470;2022-07-23T00:37:45;10.98;;;6.63;;
56381;SDS011;50261;51.150;4.470;2022-07-23T00:40:11;9.80;;;6.68;;
56381;SDS011;50261;51.150;4.470;2022-07-23T00:42:37;8.18;;;5.68;;
56381;SDS011;50261;51.150;4.470;2022-07-23T00:45:04;10.07;;;6.30;;
56381;SDS011;50261;51.150;4.470;2022-07-23T00:47:30;12.75;;;6.43;;
56381;SDS011;50261;51.150;4.470;2022-07-23T00:49:55;10.48;;;6.22;;
56381;SDS011;50261;51.150;4.470;2022-07-23T00:52:21;10.13;;;6.57;;
56381;SDS011;50261;51.150;4.470;2022-07-23T00:54:47;9.20;;;6.15;;
56381;SDS011;50261;51.150;4.470;2022-07-23T00:57:13;8.30;;;6.20;;
56381;SDS011;50261;51.150;4.470;2022-07-23T00:59:39;8.63;;;6.68;;
56381;SDS011;50261;51.150;4.470;2022-07-23T01:02:05;9.77;;;6.45;;
56381;SDS011;50261;51.150;4.470;2022-07-23T01:04:30;10.05;;;5.85;;
56381;SDS011;50261;51.150;4.470;2022-07-23T01:06:56;9.70;;;6.90;;
56381;SDS011;50261;51.150;4.470;2022-07-23T01:09:22;8.30;;;6.28;;
56381;SDS011;50261;51.150;4.470;2022-07-23T01:11:48;9.13;;;6.25;;
56381;SDS011;50261;51.150;4.470;2022-07-23T01:14:17;8.48;;;6.78;;
56381;SDS011;50261;51.150;4.470;2022-07-23T01:16:43;8.23;;;6.00;;
56381;SDS011;50261;51.150;4.470;2022-07-23T01:19:09;8.85;;;6.20;;
56381;SDS011;50261;51.150;4.470;2022-07-23T01:21:36;10.60;;;6.93;;
56381;SDS011;50261;51.150;4.470;2022-07-23T01:24:02;9.73;;;6.68;;
56381;SDS011;50261;51.150;4.470;2022-07-23T01:26:30;7.18;;;6.25;;
56381;SDS011;50261;51.150;4.470;2022-07-23T01:28:56;10.73;;;6.55;;
56381;SDS011;50261;51.150;4.470;2022-07-23T01:31:22;10.13;;;5.70;;
56381;SDS011;50261;51.150;4.470;2022-07-23T01:33:48;8.43;;;6.82;;
56381;SDS011;50261;51.150;4.470;2022-07-23T01:36:14;8.75;;;6.10;;
56381;SDS011;50261;51.150;4.470;2022-07-23T01:38:40;8.18;;;6.85;;
56381;SDS011;50261;51.150;4.470;2022-07-23T01:41:06;11.43;;;5.93;;
56381;SDS011;50261;51.150;4.470;2022-07-23T01:43:32;7.10;;;5.80;;
56381;SDS011;50261;51.150;4.470;2022-07-23T01:45:57;9.55;;;6.60;;
56381;SDS011;50261;51.150;4.470;2022-07-23T01:48:26;8.45;;;5.90;;
56381;SDS011;50261;51.150;4.470;2022-07-23T01:51:17;9.95;;;6.68;;
56381;SDS011;50261;51.150;4.470;2022-07-23T01:53:51;8.25;;;6.38;;
56381;SDS011;50261;51.150;4.470;2022-07-23T01:56:17;10.32;;;6.72;;
56381;SDS011;50261;51.150;4.470;2022-07-23T01:58:45;8.32;;;6.25;;
56381;SDS011;50261;51.150;4.470;2022-07-23T02:01:11;13.60;;;6.50;;
56381;SDS011;50261;51.150;4.470;2022-07-23T02:03:37;10.15;;;6.60;;
56381;SDS011;50261;51.150;4.470;2022-07-23T02:06:02;10.63;;;6.75;;
56381;SDS011;50261;51.150;4.470;2022-07-23T02:08:28;7.20;;;6.45;;
56381;SDS011;50261;51.150;4.470;2022-07-23T02:10:54;9.50;;;6.38;;
56381;SDS011;50261;51.150;4.470;2022-07-23T02:13:20;9.25;;;6.53;;
56381;SDS011;50261;51.150;4.470;2022-07-23T02:15:46;9.70;;;6.35;;
56381;SDS011;50261;51.150;4.470;2022-07-23T02:18:12;8.65;;;6.60;;
56381;SDS011;50261;51.150;4.470;2022-07-23T02:20:38;8.80;;;6.57;;
56381;SDS011;50261;51.150;4.470;2022-07-23T02:23:04;8.93;;;6.63;;
56381;SDS011;50261;51.150;4.470;2022-07-23T02:25:29;7.97;;;6.60;;
56381;SDS011;50261;51.150;4.470;2022-07-23T02:28:00;8.48;;;6.32;;
56381;SDS011;50261;51.150;4.470;2022-07-23T02:30:25;10.23;;;6.55;;
56381;SDS011;50261;51.150;4.470;2022-07-23T02:32:51;8.45;;;6.30;;
56381;SDS011;50261;51.150;4.470;2022-07-23T02:35:17;11.32;;;6.47;;
56381;SDS011;50261;51.150;4.470;2022-07-23T02:37:43;9.60;;;6.10;;
56381;SDS011;50261;51.150;4.470;2022-07-23T02:40:08;8.48;;;6.13;;
56381;SDS011;50261;51.150;4.470;2022-07-23T02:42:38;8.60;;;6.70;;
56381;SDS011;50261;51.150;4.470;2022-07-23T02:45:04;9.73;;;6.15;;
56381;SDS011;50261;51.150;4.470;2022-07-23T02:47:30;9.40;;;6.75;;
56381;SDS011;50261;51.150;4.470;2022-07-23T02:49:59;8.07;;;6.03;;
56381;SDS011;50261;51.150;4.470;2022-07-23T02:52:25;9.23;;;6.43;;
56381;SDS011;50261;51.150;4.470;2022-07-23T02:54:51;7.35;;;5.97;;
56381;SDS011;50261;51.150;4.470;2022-07-23T02:57:16;9.48;;;7.18;;
56381;SDS011;50261;51.150;4.470;2022-07-23T02:59:42;8.18;;;6.78;;
56381;SDS011;50261;51.150;4.470;2022-07-23T03:02:08;9.95;;;6.45;;
56381;SDS011;50261;51.150;4.470;2022-07-23T03:04:34;8.25;;;6.43;;
56381;SDS011;50261;51.150;4.470;2022-07-23T03:06:59;8.57;;;6.43;;
56381;SDS011;50261;51.150;4.470;2022-07-23T03:09:25;9.35;;;6.55;;
56381;SDS011;50261;51.150;4.470;2022-07-23T03:11:51;10.52;;;6.70;;
56381;SDS011;50261;51.150;4.470;2022-07-23T03:14:18;11.20;;;6.53;;
56381;SDS011;50261;51.150;4.470;2022-07-23T03:16:44;8.63;;;6.78;;
56381;SDS011;50261;51.150;4.470;2022-07-23T03:19:10;10.93;;;6.93;;
56381;SDS011;50261;51.150;4.470;2022-07-23T03:21:36;9.23;;;7.13;;
56381;SDS011;50261;51.150;4.470;2022-07-23T03:24:07;11.00;;;6.70;;
56381;SDS011;50261;51.150;4.470;2022-07-23T03:26:32;7.47;;;6.20;;
56381;SDS011;50261;51.150;4.470;2022-07-23T03:28:58;11.10;;;7.00;;
56381;SDS011;50261;51.150;4.470;2022-07-23T03:31:24;9.50;;;6.53;;
56381;SDS011;50261;51.150;4.470;2022-07-23T03:33:49;7.50;;;6.55;;
56381;SDS011;50261;51.150;4.470;2022-07-23T03:36:15;8.02;;;6.32;;
56381;SDS011;50261;51.150;4.470;2022-07-23T03:38:44;9.38;;;6.53;;
56381;SDS011;50261;51.150;4.470;2022-07-23T03:41:09;8.68;;;6.15;;
56381;SDS011;50261;51.150;4.470;2022-07-23T03:43:35;8.60;;;6.55;;
56381;SDS011;50261;51.150;4.470;2022-07-23T03:46:01;7.45;;;6.00;;
56381;SDS011;50261;51.150;4.470;2022-07-23T03:48:27;8.70;;;6.28;;
56381;SDS011;50261;51.150;4.470;2022-07-23T03:50:52;9.77;;;6.47;;
56381;SDS011;50261;51.150;4.470;2022-07-23T03:53:18;7.97;;;6.00;;
56381;SDS011;50261;51.150;4.470;2022-07-23T03:55:45;8.70;;;6.30;;
56381;SDS011;50261;51.150;4.470;2022-07-23T03:58:11;8.02;;;6.57;;
56381;SDS011;50261;51.150;4.470;2022-07-23T04:00:37;7.60;;;5.70;;
56381;SDS011;50261;51.150;4.470;2022-07-23T04:03:03;9.95;;;6.47;;
56381;SDS011;50261;51.150;4.470;2022-07-23T04:05:29;8.23;;;6.10;;
56381;SDS011;50261;51.150;4.470;2022-07-23T04:08:04;10.63;;;6.32;;
56381;SDS011;50261;51.150;4.470;2022-07-23T04:10:30;7.05;;;6.32;;
56381;SDS011;50261;51.150;4.470;2022-07-23T04:12:56;7.90;;;5.60;;
56381;SDS011;50261;51.150;4.470;2022-07-23T04:15:22;9.77;;;6.25;;
56381;SDS011;50261;51.150;4.470;2022-07-23T04:17:48;7.93;;;6.00;;
56381;SDS011;50261;51.150;4.470;2022-07-23T04:20:16;10.10;;;6.13;;
56381;SDS011;50261;51.150;4.470;2022-07-23T04:22:48;7.60;;;6.30;;
56381;SDS011;50261;51.150;4.470;2022-07-23T04:25:14;11.43;;;6.43;;
56381;SDS011;50261;51.150;4.470;2022-07-23T04:27:43;9.30;;;6.07;;
56381;SDS011;50261;51.150;4.470;2022-07-23T04:30:08;10.40;;;6.40;;
56381;SDS011;50261;51.150;4.470;2022-07-23T04:32:34;10.90;;;6.20;;
56381;SDS011;50261;51.150;4.470;2022-07-23T04:35:03;9.20;;;6.20;;
56381;SDS011;50261;51.150;4.470;2022-07-23T04:37:29;9.20;;;5.97;;
56381;SDS011;50261;51.150;4.470;2022-07-23T04:39:55;8.27;;;5.82;;
56381;SDS011;50261;51.150;4.470;2022-07-23T04:42:23;9.60;;;6.65;;
56381;SDS011;50261;51.150;4.470;2022-07-23T04:44:49;8.05;;;6.20;;
56381;SDS011;50261;51.150;4.470;2022-07-23T04:47:15;7.72;;;6.20;;
56381;SDS011;50261;51.150;4.470;2022-07-23T04:49:43;8.63;;;5.97;;
56381;SDS011;50261;51.150;4.470;2022-07-23T04:52:09;14.13;;;5.97;;
56381;SDS011;50261;51.150;4.470;2022-07-23T04:54:35;9.10;;;6.15;;
56381;SDS011;50261;51.150;4.470;2022-07-23T04:57:01;8.77;;;6.70;;
56381;SDS011;50261;51.150;4.470;2022-07-23T04:59:27;8.98;;;6.30;;
56381;SDS011;50261;51.150;4.470;2022-07-23T05:01:58;9.80;;;6.47;;
56381;SDS011;50261;51.150;4.470;2022-07-23T05:04:24;8.43;;;6.70;;
56381;SDS011;50261;51.150;4.470;2022-07-23T05:06:50;10.18;;;6.82;;
56381;SDS011;50261;51.150;4.470;2022-07-23T05:09:16;8.52;;;6.25;;
56381;SDS011;50261;51.150;4.470;2022-07-23T05:11:42;7.22;;;6.40;;
56381;SDS011;50261;51.150;4.470;2022-07-23T05:14:07;10.93;;;6.32;;
56381;SDS011;50261;51.150;4.470;2022-07-23T05:16:33;9.07;;;6.80;;
56381;SDS011;50261;51.150;4.470;2022-07-23T05:19:07;10.50;;;6.50;;
56381;SDS011;50261;51.150;4.470;2022-07-23T05:21:34;9.65;;;6.93;;
56381;SDS011;50261;51.150;4.470;2022-07-23T05:24:00;7.57;;;6.35;;
56381;SDS011;50261;51.150;4.470;2022-07-23T05:26:26;7.65;;;6.43;;
56381;SDS011;50261;51.150;4.470;2022-07-23T05:28:52;8.57;;;6.07;;
56381;SDS011;50261;51.150;4.470;2022-07-23T05:31:19;10.05;;;6.50;;
56381;SDS011;50261;51.150;4.470;2022-07-23T05:33:46;8.82;;;6.38;;
56381;SDS011;50261;51.150;4.470;2022-07-23T05:36:12;8.73;;;6.45;;
56381;SDS011;50261;51.150;4.470;2022-07-23T05:38:50;9.13;;;6.55;;
56381;SDS011;50261;51.150;4.470;2022-07-23T05:41:16;9.02;;;6.65;;
56381;SDS011;50261;51.150;4.470;2022-07-23T05:43:42;7.97;;;6.15;;
56381;SDS011;50261;51.150;4.470;2022-07-23T05:46:10;9.48;;;6.25;;
56381;SDS011;50261;51.150;4.470;2022-07-23T05:48:37;8.07;;;6.00;;
56381;SDS011;50261;51.150;4.470;2022-07-23T05:51:10;7.03;;;5.70;;
56381;SDS011;50261;51.150;4.470;2022-07-23T05:53:35;8.32;;;5.95;;
56381;SDS011;50261;51.150;4.470;2022-07-23T05:56:11;8.15;;;6.22;;
56381;SDS011;50261;51.150;4.470;2022-07-23T05:58:37;7.65;;;5.95;;
56381;SDS011;50261;51.150;4.470;2022-07-23T06:01:03;10.23;;;6.45;;
56381;SDS011;50261;51.150;4.470;2022-07-23T06:03:36;9.80;;;6.60;;
56381;SDS011;50261;51.150;4.470;2022-07-23T06:06:03;10.38;;;6.93;;
56381;SDS011;50261;51.150;4.470;2022-07-23T06:08:28;9.35;;;6.45;;
56381;SDS011;50261;51.150;4.470;2022-07-23T06:10:54;9.32;;;5.65;;
56381;SDS011;50261;51.150;4.470;2022-07-23T06:13:20;7.75;;;6.45;;
56381;SDS011;50261;51.150;4.470;2022-07-23T06:15:46;8.15;;;5.88;;
56381;SDS011;50261;51.150;4.470;2022-07-23T06:18:12;8.75;;;6.88;;
56381;SDS011;50261;51.150;4.470;2022-07-23T06:20:39;10.80;;;6.50;;
56381;SDS011;50261;51.150;4.470;2022-07-23T06:23:05;11.20;;;6.45;;
56381;SDS011;50261;51.150;4.470;2022-07-23T06:25:31;7.72;;;5.68;;
56381;SDS011;50261;51.150;4.470;2022-07-23T06:27:56;8.82;;;6.13;;
56381;SDS011;50261;51.150;4.470;2022-07-23T06:30:22;9.60;;;6.30;;
56381;SDS011;50261;51.150;4.470;2022-07-23T06:32:48;10.52;;;6.05;;
56381;SDS011;50261;51.150;4.470;2022-07-23T06:35:14;6.85;;;6.00;;
56381;SDS011;50261;51.150;4.470;2022-07-23T06:37:40;7.38;;;5.80;;
56381;SDS011;50261;51.150;4.470;2022-07-23T06:40:06;9.85;;;5.85;;
56381;SDS011;50261;51.150;4.470;2022-07-23T06:42:35;6.03;;;5.40;;
56381;SDS011;50261;51.150;4.470;2022-07-23T06:45:07;12.23;;;6.32;;
56381;SDS011;50261;51.150;4.470;2022-07-23T06:47:35;8.07;;;5.32;;
56381;SDS011;50261;51.150;4.470;2022-07-23T06:50:01;5.78;;;5.13;;
56381;SDS011;50261;51.150;4.470;2022-07-23T06:52:26;8.15;;;5.45;;
56381;SDS011;50261;51.150;4.470;2022-07-23T06:54:52;8.73;;;5.25;;
56381;SDS011;50261;51.150;4.470;2022-07-23T06:57:18;10.93;;;5.82;;
56381;SDS011;50261;51.150;4.470;2022-07-23T06:59:44;8.90;;;5.57;;
56381;SDS011;50261;51.150;4.470;2022-07-23T07:02:09;7.45;;;5.03;;
56381;SDS011;50261;51.150;4.470;2022-07-23T07:04:35;8.40;;;6.03;;
56381;SDS011;50261;51.150;4.470;2022-07-23T07:07:01;7.32;;;4.57;;
56381;SDS011;50261;51.150;4.470;2022-07-23T07:09:27;8.15;;;5.13;;
56381;SDS011;50261;51.150;4.470;2022-07-23T07:11:52;7.72;;;5.00;;
56381;SDS011;50261;51.150;4.470;2022-07-23T07:14:18;6.75;;;4.80;;
56381;SDS011;50261;51.150;4.470;2022-07-23T07:16:43;6.95;;;4.68;;
56381;SDS011;50261;51.150;4.470;2022-07-23T07:19:09;9.77;;;4.70;;
56381;SDS011;50261;51.150;4.470;2022-07-23T07:21:34;8.55;;;4.80;;
56381;SDS011;50261;51.150;4.470;2022-07-23T07:24:00;7.85;;;4.85;;
56381;SDS011;50261;51.150;4.470;2022-07-23T07:26:38;9.85;;;6.18;;
56381;SDS011;50261;51.150;4.470;2022-07-23T07:29:04;6.78;;;4.88;;
56381;SDS011;50261;51.150;4.470;2022-07-23T07:31:30;8.38;;;5.55;;
56381;SDS011;50261;51.150;4.470;2022-07-23T07:33:55;6.60;;;4.45;;
56381;SDS011;50261;51.150;4.470;2022-07-23T07:36:22;7.25;;;5.43;;
56381;SDS011;50261;51.150;4.470;2022-07-23T07:38:48;9.27;;;5.05;;
56381;SDS011;50261;51.150;4.470;2022-07-23T07:41:13;9.73;;;5.45;;
56381;SDS011;50261;51.150;4.470;2022-07-23T07:43:39;9.32;;;5.60;;
56381;SDS011;50261;51.150;4.470;2022-07-23T07:46:05;7.03;;;5.43;;
56381;SDS011;50261;51.150;4.470;2022-07-23T07:48:38;8.27;;;4.93;;
56381;SDS011;50261;51.150;4.470;2022-07-23T07:51:04;6.10;;;4.38;;
56381;SDS011;50261;51.150;4.470;2022-07-23T07:53:29;8.00;;;5.15;;
56381;SDS011;50261;51.150;4.470;2022-07-23T07:55:55;4.95;;;4.25;;
56381;SDS011;50261;51.150;4.470;2022-07-23T07:58:21;8.50;;;4.68;;
56381;SDS011;50261;51.150;4.470;2022-07-23T08:00:46;7.32;;;4.40;;
56381;SDS011;50261;51.150;4.470;2022-07-23T08:03:12;6.57;;;4.32;;
56381;SDS011;50261;51.150;4.470;2022-07-23T08:05:38;6.68;;;4.72;;
56381;SDS011;50261;51.150;4.470;2022-07-23T08:08:03;9.18;;;4.22;;
56381;SDS011;50261;51.150;4.470;2022-07-23T08:10:29;7.07;;;4.50;;
56381;SDS011;50261;51.150;4.470;2022-07-23T08:12:56;15.02;;;4.65;;
56381;SDS011;50261;51.150;4.470;2022-07-23T08:15:23;6.47;;;4.60;;
56381;SDS011;50261;51.150;4.470;2022-07-23T08:17:49;8.55;;;4.68;;
56381;SDS011;50261;51.150;4.470;2022-07-23T08:20:16;6.18;;;3.95;;
56381;SDS011;50261;51.150;4.470;2022-07-23T08:25:08;6.05;;;4.78;;
56381;SDS011;50261;51.150;4.470;2022-07-23T08:27:34;9.52;;;5.45;;
56381;SDS011;50261;51.150;4.470;2022-07-23T08:30:00;5.85;;;4.80;;
56381;SDS011;50261;51.150;4.470;2022-07-23T08:32:25;7.18;;;4.82;;
56381;SDS011;50261;51.150;4.470;2022-07-23T08:34:51;8.10;;;5.65;;
56381;SDS011;50261;51.150;4.470;2022-07-23T08:37:17;9.13;;;5.50;;
56381;SDS011;50261;51.150;4.470;2022-07-23T08:39:42;7.63;;;6.28;;
56381;SDS011;50261;51.150;4.470;2022-07-23T08:42:08;9.80;;;6.07;;
56381;SDS011;50261;51.150;4.470;2022-07-23T08:44:34;8.45;;;5.18;;
56381;SDS011;50261;51.150;4.470;2022-07-23T08:47:01;9.55;;;5.10;;
56381;SDS011;50261;51.150;4.470;2022-07-23T08:49:27;5.30;;;4.80;;
56381;SDS011;50261;51.150;4.470;2022-07-23T08:51:53;7.38;;;5.35;;
56381;SDS011;50261;51.150;4.470;2022-07-23T08:54:20;6.90;;;5.00;;
56381;SDS011;50261;51.150;4.470;2022-07-23T08:56:46;6.70;;;4.22;;
56381;SDS011;50261;51.150;4.470;2022-07-23T08:59:11;7.28;;;3.70;;
56381;SDS011;50261;51.150;4.470;2022-07-23T09:01:39;5.93;;;3.65;;
56381;SDS011;50261;51.150;4.470;2022-07-23T09:04:04;5.25;;;3.40;;
56381;SDS011;50261;51.150;4.470;2022-07-23T09:06:30;6.22;;;3.50;;
56381;SDS011;50261;51.150;4.470;2022-07-23T09:08:56;6.95;;;3.40;;
56381;SDS011;50261;51.150;4.470;2022-07-23T09:11:22;4.22;;;2.85;;
56381;SDS011;50261;51.150;4.470;2022-07-23T09:21:28;7.22;;;3.10;;
56381;SDS011;50261;51.150;4.470;2022-07-23T09:26:26;3.33;;;2.25;;
56381;SDS011;50261;51.150;4.470;2022-07-23T09:31:46;3.30;;;2.17;;
56381;SDS011;50261;51.150;4.470;2022-07-23T09:34:13;3.03;;;1.98;;
56381;SDS011;50261;51.150;4.470;2022-07-23T09:36:39;2.95;;;2.28;;
56381;SDS011;50261;51.150;4.470;2022-07-23T09:39:06;6.80;;;2.70;;
56381;SDS011;50261;51.150;4.470;2022-07-23T09:41:36;3.95;;;2.58;;
56381;SDS011;50261;51.150;4.470;2022-07-23T09:44:12;4.97;;;2.55;;
56381;SDS011;50261;51.150;4.470;2022-07-23T09:46:38;4.53;;;2.60;;
56381;SDS011;50261;51.150;4.470;2022-07-23T09:49:19;6.03;;;2.47;;
56381;SDS011;50261;51.150;4.470;2022-07-23T09:51:46;3.78;;;2.17;;
56381;SDS011;50261;51.150;4.470;2022-07-23T09:54:33;6.32;;;2.17;;
56381;SDS011;50261;51.150;4.470;2022-07-23T09:57:00;5.10;;;2.45;;
56381;SDS011;50261;51.150;4.470;2022-07-23T09:59:27;3.40;;;2.17;;
56381;SDS011;50261;51.150;4.470;2022-07-23T10:01:54;3.33;;;2.30;;
56381;SDS011;50261;51.150;4.470;2022-07-23T10:04:22;5.43;;;3.08;;
56381;SDS011;50261;51.150;4.470;2022-07-23T10:07:11;4.38;;;2.83;;
56381;SDS011;50261;51.150;4.470;2022-07-23T10:09:51;4.75;;;3.20;;
56381;SDS011;50261;51.150;4.470;2022-07-23T10:12:36;7.10;;;2.97;;
56381;SDS011;50261;51.150;4.470;2022-07-23T10:15:06;3.60;;;2.90;;
56381;SDS011;50261;51.150;4.470;2022-07-23T10:17:32;4.65;;;2.42;;
56381;SDS011;50261;51.150;4.470;2022-07-23T10:19:58;5.45;;;2.42;;
56381;SDS011;50261;51.150;4.470;2022-07-23T10:22:42;3.35;;;2.20;;
56381;SDS011;50261;51.150;4.470;2022-07-23T10:28:16;2.35;;;2.03;;
56381;SDS011;50261;51.150;4.470;2022-07-23T10:34:00;3.80;;;2.00;;
56381;SDS011;50261;51.150;4.470;2022-07-23T10:36:22;4.35;;;2.00;;
56381;SDS011;50261;51.150;4.470;2022-07-23T10:38:58;3.13;;;1.85;;
56381;SDS011;50261;51.150;4.470;2022-07-23T10:41:36;3.47;;;1.23;;
56381;SDS011;50261;51.150;4.470;2022-07-23T10:44:15;8.13;;;2.10;;
56381;SDS011;50261;51.150;4.470;2022-07-23T10:46:59;3.92;;;2.35;;
56381;SDS011;50261;51.150;4.470;2022-07-23T10:49:45;3.10;;;1.90;;
56381;SDS011;50261;51.150;4.470;2022-07-23T10:54:43;3.53;;;1.60;;
56381;SDS011;50261;51.150;4.470;2022-07-23T10:57:10;1.45;;;1.30;;
56381;SDS011;50261;51.150;4.470;2022-07-23T11:04:49;3.08;;;1.85;;
56381;SDS011;50261;51.150;4.470;2022-07-23T11:07:15;3.00;;;1.55;;
56381;SDS011;50261;51.150;4.470;2022-07-23T11:09:42;2.47;;;1.55;;
56381;SDS011;50261;51.150;4.470;2022-07-23T11:17:25;2.30;;;1.30;;
56381;SDS011;50261;51.150;4.470;2022-07-23T11:22:38;3.45;;;1.35;;
56381;SDS011;50261;51.150;4.470;2022-07-23T11:25:04;3.03;;;1.23;;
56381;SDS011;50261;51.150;4.470;2022-07-23T11:27:43;4.75;;;2.17;;
56381;SDS011;50261;51.150;4.470;2022-07-23T11:30:10;4.00;;;2.50;;
56381;SDS011;50261;51.150;4.470;2022-07-23T11:32:39;4.82;;;1.90;;
56381;SDS011;50261;51.150;4.470;2022-07-23T11:35:21;2.58;;;1.90;;
56381;SDS011;50261;51.150;4.470;2022-07-23T11:37:48;2.85;;;1.80;;
56381;SDS011;50261;51.150;4.470;2022-07-23T11:40:14;1.88;;;1.63;;
56381;SDS011;50261;51.150;4.470;2022-07-23T11:42:51;2.47;;;1.67;;
56381;SDS011;50261;51.150;4.470;2022-07-23T11:45:17;2.42;;;1.80;;
56381;SDS011;50261;51.150;4.470;2022-07-23T11:47:43;4.22;;;2.08;;
56381;SDS011;50261;51.150;4.470;2022-07-23T11:50:08;2.33;;;1.60;;
56381;SDS011;50261;51.150;4.470;2022-07-23T11:52:34;2.55;;;1.75;;
56381;SDS011;50261;51.150;4.470;2022-07-23T11:57:35;1.92;;;1.50;;
56381;SDS011;50261;51.150;4.470;2022-07-23T12:00:06;4.75;;;1.33;;
56381;SDS011;50261;51.150;4.470;2022-07-23T12:02:39;3.97;;;1.40;;
56381;SDS011;50261;51.150;4.470;2022-07-23T12:05:06;1.85;;;1.40;;
56381;SDS011;50261;51.150;4.470;2022-07-23T12:10:01;3.85;;;1.70;;
56381;SDS011;50261;51.150;4.470;2022-07-23T12:12:34;1.73;;;1.50;;
56381;SDS011;50261;51.150;4.470;2022-07-23T12:15:00;2.10;;;1.40;;
56381;SDS011;50261;51.150;4.470;2022-07-23T12:17:30;5.13;;;1.65;;
56381;SDS011;50261;51.150;4.470;2022-07-23T12:19:56;2.10;;;1.70;;
56381;SDS011;50261;51.150;4.470;2022-07-23T12:22:26;3.92;;;1.92;;
56381;SDS011;50261;51.150;4.470;2022-07-23T12:27:30;1.83;;;1.20;;
56381;SDS011;50261;51.150;4.470;2022-07-23T12:29:56;2.75;;;1.30;;
56381;SDS011;50261;51.150;4.470;2022-07-23T12:32:23;2.50;;;1.42;;
56381;SDS011;50261;51.150;4.470;2022-07-23T12:34:50;1.15;;;1.00;;
56381;SDS011;50261;51.150;4.470;2022-07-23T12:37:29;2.40;;;1.15;;
56381;SDS011;50261;51.150;4.470;2022-07-23T12:39:54;1.25;;;1.10;;
56381;SDS011;50261;51.150;4.470;2022-07-23T12:42:20;3.45;;;1.33;;
56381;SDS011;50261;51.150;4.470;2022-07-23T12:47:30;3.65;;;1.58;;
56381;SDS011;50261;51.150;4.470;2022-07-23T12:49:56;2.25;;;1.20;;
56381;SDS011;50261;51.150;4.470;2022-07-23T12:52:22;2.83;;;1.50;;
56381;SDS011;50261;51.150;4.470;2022-07-23T12:54:47;2.00;;;1.40;;
56381;SDS011;50261;51.150;4.470;2022-07-23T12:57:13;1.88;;;1.50;;
56381;SDS011;50261;51.150;4.470;2022-07-23T12:59:39;1.33;;;1.10;;
56381;SDS011;50261;51.150;4.470;2022-07-23T13:02:05;2.78;;;1.50;;
56381;SDS011;50261;51.150;4.470;2022-07-23T13:04:33;1.38;;;1.27;;
56381;SDS011;50261;51.150;4.470;2022-07-23T13:06:59;1.88;;;1.60;;
56381;SDS011;50261;51.150;4.470;2022-07-23T13:09:29;1.80;;;1.25;;
56381;SDS011;50261;51.150;4.470;2022-07-23T13:11:55;2.25;;;1.60;;
56381;SDS011;50261;51.150;4.470;2022-07-23T13:14:21;2.28;;;1.30;;
56381;SDS011;50261;51.150;4.470;2022-07-23T13:16:47;2.40;;;1.42;;
56381;SDS011;50261;51.150;4.470;2022-07-23T13:19:13;2.97;;;1.42;;
56381;SDS011;50261;51.150;4.470;2022-07-23T13:21:39;2.75;;;1.65;;
56381;SDS011;50261;51.150;4.470;2022-07-23T13:24:06;2.53;;;1.65;;
56381;SDS011;50261;51.150;4.470;2022-07-23T13:26:31;2.45;;;1.42;;
56381;SDS011;50261;51.150;4.470;2022-07-23T13:28:57;2.65;;;1.67;;
56381;SDS011;50261;51.150;4.470;2022-07-23T13:31:23;3.70;;;1.98;;
56381;SDS011;50261;51.150;4.470;2022-07-23T13:33:49;3.83;;;1.90;;
56381;SDS011;50261;51.150;4.470;2022-07-23T13:36:15;2.75;;;1.90;;
56381;SDS011;50261;51.150;4.470;2022-07-23T13:38:41;3.65;;;2.10;;
56381;SDS011;50261;51.150;4.470;2022-07-23T13:41:07;3.33;;;1.73;;
56381;SDS011;50261;51.150;4.470;2022-07-23T13:43:34;3.15;;;1.70;;
56381;SDS011;50261;51.150;4.470;2022-07-23T13:45:59;3.00;;;2.00;;
56381;SDS011;50261;51.150;4.470;2022-07-23T13:48:25;2.33;;;1.80;;
56381;SDS011;50261;51.150;4.470;2022-07-23T13:50:51;2.88;;;1.60;;
56381;SDS011;50261;51.150;4.470;2022-07-23T13:53:19;3.65;;;2.03;;
56381;SDS011;50261;51.150;4.470;2022-07-23T13:55:45;2.65;;;1.98;;
56381;SDS011;50261;51.150;4.470;2022-07-23T13:58:11;3.72;;;2.13;;
56381;SDS011;50261;51.150;4.470;2022-07-23T14:00:38;2.30;;;1.67;;
56381;SDS011;50261;51.150;4.470;2022-07-23T14:03:04;2.78;;;1.95;;
56381;SDS011;50261;51.150;4.470;2022-07-23T14:05:30;3.72;;;1.98;;
56381;SDS011;50261;51.150;4.470;2022-07-23T14:07:56;6.82;;;2.13;;
56381;SDS011;50261;51.150;4.470;2022-07-23T14:10:22;2.20;;;1.70;;
56381;SDS011;50261;51.150;4.470;2022-07-23T14:12:48;4.13;;;1.52;;
56381;SDS011;50261;51.150;4.470;2022-07-23T14:15:14;2.20;;;2.00;;
56381;SDS011;50261;51.150;4.470;2022-07-23T14:17:41;2.33;;;1.88;;
56381;SDS011;50261;51.150;4.470;2022-07-23T14:20:08;4.38;;;2.03;;
56381;SDS011;50261;51.150;4.470;2022-07-23T14:22:34;3.00;;;2.05;;
56381;SDS011;50261;51.150;4.470;2022-07-23T14:25:00;5.05;;;2.63;;
56381;SDS011;50261;51.150;4.470;2022-07-23T14:27:26;2.70;;;1.90;;
56381;SDS011;50261;51.150;4.470;2022-07-23T14:29:52;2.95;;;2.65;;
56381;SDS011;50261;51.150;4.470;2022-07-23T14:32:18;3.70;;;2.17;;
56381;SDS011;50261;51.150;4.470;2022-07-23T14:34:44;4.25;;;2.20;;
56381;SDS011;50261;51.150;4.470;2022-07-23T14:37:10;5.13;;;2.78;;
56381;SDS011;50261;51.150;4.470;2022-07-23T14:39:37;2.67;;;2.22;;
56381;SDS011;50261;51.150;4.470;2022-07-23T14:42:03;4.50;;;2.35;;
56381;SDS011;50261;51.150;4.470;2022-07-23T14:44:29;3.63;;;2.20;;
56381;SDS011;50261;51.150;4.470;2022-07-23T14:46:55;2.30;;;2.10;;
56381;SDS011;50261;51.150;4.470;2022-07-23T14:49:21;2.35;;;1.98;;
56381;SDS011;50261;51.150;4.470;2022-07-23T14:51:46;2.97;;;2.30;;
56381;SDS011;50261;51.150;4.470;2022-07-23T14:54:13;3.03;;;2.30;;
56381;SDS011;50261;51.150;4.470;2022-07-23T14:56:40;4.43;;;1.92;;
56381;SDS011;50261;51.150;4.470;2022-07-23T14:59:05;2.88;;;2.10;;
56381;SDS011;50261;51.150;4.470;2022-07-23T15:01:31;2.33;;;2.10;;
56381;SDS011;50261;51.150;4.470;2022-07-23T15:03:57;4.50;;;3.08;;
56381;SDS011;50261;51.150;4.470;2022-07-23T15:06:23;4.35;;;2.85;;
56381;SDS011;50261;51.150;4.470;2022-07-23T15:08:49;3.00;;;2.40;;
56381;SDS011;50261;51.150;4.470;2022-07-23T15:11:14;4.53;;;2.58;;
56381;SDS011;50261;51.150;4.470;2022-07-23T15:13:40;2.38;;;2.10;;
56381;SDS011;50261;51.150;4.470;2022-07-23T15:16:06;3.22;;;2.17;;
56381;SDS011;50261;51.150;4.470;2022-07-23T15:18:31;5.63;;;2.58;;
56381;SDS011;50261;51.150;4.470;2022-07-23T15:20:57;3.90;;;2.17;;
56381;SDS011;50261;51.150;4.470;2022-07-23T15:23:23;3.05;;;2.28;;
56381;SDS011;50261;51.150;4.470;2022-07-23T15:25:49;4.10;;;2.60;;
56381;SDS011;50261;51.150;4.470;2022-07-23T15:28:14;3.28;;;2.33;;
56381;SDS011;50261;51.150;4.470;2022-07-23T15:30:40;3.30;;;2.35;;
56381;SDS011;50261;51.150;4.470;2022-07-23T15:33:06;3.00;;;2.30;;